.
WxDataArchive / Data Records for 2007-01-11
2007-01-10 January 2007 2007-01-12

Data Records for Thursday, 11 January 2007

Time	Temp	Chill	HIndex	Humid	Dewpt	 Wind 	HiWind	WindDir	Rain 	Barom 
-----	----	-----	------	-----	-----	------	------	-------	-----	----- 
00:00	30.6	30.6	30.6	62	19.2	1	3	112	0.00	30.248 
00:05	30.6	30.6	30.6	62	19.2	2	5	112	0.00	30.242 
00:10	30.7	30.7	30.7	62	19.2	2	5	90	0.00	30.242 
00:15	30.9	30.9	30.9	61	19.1	2	7	112	0.00	30.241 
00:20	30.9	30.9	30.9	61	19.1	2	5	112	0.00	30.241 
00:25	30.9	30.9	30.9	62	19.4	1	5	90	0.00	30.241 
00:30	31.0	31.0	31.0	62	19.5	3	10	112	0.00	30.240 
00:35	31.0	31.0	31.0	62	19.5	2	5	90	0.00	30.239 
00:40	31.0	31.0	31.0	62	19.5	2	5	90	0.00	30.241 
00:45	31.0	31.0	31.0	62	19.5	2	6	90	0.00	30.240 
00:50	31.0	31.0	31.0	62	19.5	2	4	90	0.00	30.242 
00:55	31.0	31.0	31.0	62	19.5	1	4	112	0.00	30.242 
01:00	31.0	31.0	31.0	62	19.5	2	5	90	0.00	30.241 
01:05	30.9	30.9	30.9	62	19.4	1	4	112	0.00	30.240 
01:10	30.7	30.7	30.7	62	19.2	2	4	112	0.00	30.240 
01:15	30.9	30.9	30.9	62	19.4	1	7	90	0.00	30.241 
01:20	30.9	30.9	30.9	62	19.4	1	5	90	0.00	30.244 
01:25	30.7	30.7	30.7	62	19.2	1	5	90	0.00	30.245 
01:30	30.7	30.7	30.7	62	19.2	1	5	135	0.00	30.242 
01:35	30.7	30.7	30.7	62	19.2	2	7	112	0.00	30.245 
01:40	30.7	30.7	30.7	63	19.6	1	3	90	0.00	30.243 
01:45	30.6	30.6	30.6	63	19.5	1	4	112	0.00	30.241 
01:50	30.6	30.6	30.6	63	19.5	2	7	112	0.00	30.238 
01:55	30.6	30.6	30.6	63	19.5	2	5	112	0.00	30.239 
02:00	30.4	30.4	30.4	63	19.3	1	5	90	0.00	30.241 
02:05	30.4	30.4	30.4	64	19.7	1	4	112	0.00	30.236 
02:10	30.3	30.3	30.3	64	19.6	1	5	112	0.00	30.236 
02:15	30.3	30.3	30.3	64	19.6	1	6	90	0.00	30.236 
02:20	30.3	30.3	30.3	64	19.6	1	5	90	0.00	30.236 
02:25	30.3	30.3	30.3	63	19.2	1	3	112	0.00	30.238 
02:30	30.1	30.1	30.1	64	19.4	1	2	112	0.00	30.241 
02:35	30.1	30.1	30.1	64	19.4	1	4	0	0.00	30.240 
02:40	30.1	30.1	30.1	64	19.4	1	5	112	0.00	30.241 
02:45	30.1	30.1	30.1	64	19.4	1	3	45	0.00	30.240 
02:50	30.1	30.1	30.1	64	19.4	1	3	22	0.00	30.239 
02:55	30.3	30.3	30.3	64	19.6	1	5	112	0.00	30.239 
03:00	30.4	30.4	30.4	64	19.7	1	5	112	0.00	30.237 
03:05	30.4	30.4	30.4	63	19.3	2	5	112	0.00	30.239 
03:10	30.4	30.4	30.4	64	19.7	1	4	68	0.00	30.239 
03:15	30.4	30.4	30.4	63	19.3	1	4	90	0.00	30.238 
03:20	30.4	30.4	30.4	64	19.7	1	4	112	0.00	30.240 
03:25	30.4	30.4	30.4	64	19.7	1	3	90	0.00	30.238 
03:30	30.6	30.6	30.6	63	19.5	2	7	112	0.00	30.238 
03:35	30.6	30.6	30.6	63	19.5	1	3	90	0.00	30.238 
03:40	30.7	30.7	30.7	63	19.6	2	5	90	0.00	30.237 
03:45	30.6	30.6	30.6	63	19.5	1	4	248	0.00	30.236 
03:50	30.6	30.6	30.6	63	19.5	1	4	315	0.00	30.233 
03:55	30.7	30.7	30.7	62	19.2	1	6	68	0.00	30.231 
04:00	30.9	30.9	30.9	62	19.4	1	6	112	0.00	30.228 
04:05	30.9	30.9	30.9	62	19.4	1	4	68	0.00	30.222 
04:10	30.9	30.9	30.9	62	19.4	2	10	68	0.00	30.221 
04:15	30.9	30.9	30.9	61	19.1	2	6	112	0.00	30.218 
04:20	31.0	31.0	31.0	61	19.1	2	5	90	0.00	30.211 
04:25	31.0	31.0	31.0	61	19.1	2	6	90	0.00	30.210 
04:30	31.0	31.0	31.0	61	19.1	2	5	90	0.00	30.206 
04:35	31.0	31.0	31.0	61	19.1	1	5	45	0.00	30.205 
04:40	31.0	31.0	31.0	61	19.1	2	7	90	0.00	30.202 
04:45	31.0	31.0	31.0	60	18.8	2	6	90	0.00	30.201 
04:50	31.2	31.2	31.2	60	19.0	2	4	90	0.00	30.199 
04:55	31.2	31.2	31.2	60	19.0	2	7	90	0.00	30.193 
05:00	31.2	31.2	31.2	60	19.0	2	8	112	0.00	30.190 
05:05	31.3	31.3	31.3	60	19.0	2	6	112	0.00	30.191 
05:10	31.3	31.3	31.3	59	18.7	2	7	90	0.00	30.188 
05:15	31.3	31.3	31.3	59	18.7	2	6	90	0.00	30.185 
05:20	31.5	31.5	31.5	59	18.8	3	9	112	0.00	30.178 
05:25	31.3	31.3	31.3	59	18.7	2	8	112	0.00	30.183 
05:30	31.3	31.3	31.3	59	18.7	3	8	90	0.00	30.180 
05:35	31.3	31.3	31.3	59	18.7	1	6	90	0.00	30.179 
05:40	31.2	31.2	31.2	59	18.6	2	5	90	0.00	30.180 
05:45	31.2	31.2	31.2	59	18.6	2	6	112	0.00	30.179 
05:50	31.3	31.3	31.3	59	18.7	2	5	90	0.00	30.176 
05:55	31.2	31.2	31.2	59	18.6	1	4	90	0.00	30.176 
06:00	31.2	31.2	31.2	59	18.6	1	5	90	0.00	30.175 
06:05	31.3	31.3	31.3	59	18.7	2	5	68	0.00	30.173 
06:10	31.2	31.2	31.2	59	18.6	2	6	248	0.00	30.172 
06:15	31.2	31.2	31.2	59	18.6	1	4	90	0.00	30.173 
06:20	31.2	31.2	31.2	59	18.6	1	5	112	0.00	30.174 
06:25	31.3	31.3	31.3	58	18.3	2	7	68	0.00	30.175 
06:30	31.5	31.5	31.5	58	18.4	1	4	45	0.00	30.173 
06:35	31.5	31.5	31.5	58	18.4	1	5	270	0.00	30.173 
06:40	31.6	31.6	31.6	58	18.5	2	6	248	0.00	30.173 
06:45	31.6	31.6	31.6	58	18.5	1	4	45	0.00	30.172 
06:50	31.6	31.6	31.6	58	18.5	1	4	135	0.00	30.170 
06:55	31.8	31.8	31.8	58	18.7	1	6	90	0.00	30.171 
07:00	31.8	31.8	31.8	58	18.7	1	4	292	0.00	30.172 
07:05	31.8	31.8	31.8	57	18.3	1	5	90	0.00	30.170 
07:10	31.9	31.9	31.9	57	18.4	1	6	0	0.00	30.167 
07:15	31.9	31.9	31.9	56	18.0	1	4	112	0.00	30.162 
07:20	32.1	32.1	32.1	57	18.6	1	4	135	0.00	30.162 
07:25	32.1	32.1	32.1	57	18.6	1	3	112	0.00	30.159 
07:30	32.1	32.1	32.1	57	18.6	1	4	90	0.00	30.160 
07:35	32.1	32.1	32.1	56	18.2	1	6	90	0.00	30.159 
07:40	32.2	32.2	32.2	56	18.3	1	5	22	0.00	30.157 
07:45	32.2	32.2	32.2	56	18.3	1	3	112	0.00	30.155 
07:50	32.4	32.4	32.4	56	18.5	1	4	68	0.00	30.154 
07:55	32.4	32.4	32.4	56	18.5	1	3	315	0.00	30.153 
08:00	32.5	32.5	32.5	56	18.6	1	3	248	0.00	30.148 
08:05	32.7	32.7	32.7	55	18.3	1	3	68	0.00	30.146 
08:10	32.9	32.9	32.9	54	18.1	1	4	68	0.00	30.143 
08:15	33.1	33.1	33.1	54	18.3	1	4	90	0.00	30.143 
08:20	33.2	33.2	33.2	54	18.4	1	4	90	0.00	30.142 
08:25	33.4	33.4	33.4	54	18.6	1	2	90	0.00	30.140 
08:30	33.5	33.5	33.5	53	18.2	1	6	112	0.00	30.141 
08:35	33.7	33.7	33.7	54	18.8	1	5	112	0.00	30.138 
08:40	33.7	33.7	33.7	53	18.4	1	9	45	0.00	30.138 
08:45	33.8	33.8	33.8	54	18.9	1	3	90	0.00	30.138 
08:50	34.1	34.1	34.1	53	18.8	2	5	68	0.00	30.136 
08:55	34.6	34.6	34.6	52	18.8	2	6	68	0.00	30.138 
09:00	34.9	34.9	34.9	52	19.1	1	8	90	0.00	30.138 
09:05	35.3	35.3	35.3	51	19.0	2	4	90	0.00	30.136 
09:10	35.6	35.6	35.6	50	18.8	2	7	68	0.00	30.137 
09:15	35.8	35.8	35.8	50	19.0	2	9	248	0.00	30.137 
09:20	35.8	35.8	35.8	50	19.0	2	8	22	0.00	30.136 
09:25	35.9	35.9	35.9	51	19.6	2	5	248	0.00	30.138 
09:30	36.0	36.0	36.0	51	19.6	2	5	270	0.00	30.139 
09:35	36.2	36.2	36.2	50	19.4	3	9	248	0.00	30.139 
09:40	36.5	36.5	36.5	50	19.6	2	7	248	0.00	30.135 
09:45	36.6	36.6	36.6	49	19.3	2	7	248	0.00	30.137 
09:50	36.9	36.9	36.9	50	20.0	1	4	270	0.00	30.131 
09:55	37.2	37.2	37.2	50	20.3	3	10	248	0.00	30.134 
10:00	37.3	37.3	37.3	49	19.9	2	11	270	0.00	30.132 
10:05	37.3	37.3	37.3	48	19.4	3	8	248	0.00	30.127 
10:10	37.6	37.6	37.6	49	20.2	2	5	270	0.00	30.129 
10:15	37.9	37.9	37.9	48	20.0	3	9	248	0.00	30.129 
10:20	38.2	38.2	38.2	49	20.7	2	7	315	0.00	30.132 
10:25	38.3	38.3	38.3	47	19.9	3	9	248	0.00	30.128 
10:30	38.6	38.6	38.6	48	20.6	3	10	248	0.00	30.124 
10:35	38.8	38.8	38.8	48	20.8	2	10	270	0.00	30.130 
10:40	38.9	38.9	38.9	48	20.9	3	9	248	0.00	30.130 
10:45	39.1	39.1	39.1	48	21.1	3	12	248	0.00	30.128 
10:50	39.2	39.2	39.2	48	21.2	3	10	225	0.00	30.124 
10:55	39.3	39.3	39.3	48	21.3	2	6	270	0.00	30.123 
11:00	39.5	39.5	39.5	48	21.5	3	7	270	0.00	30.124 
11:05	39.5	39.5	39.5	48	21.5	3	9	270	0.00	30.122 
11:10	39.9	39.9	39.9	48	21.8	2	8	270	0.00	30.121 
11:15	40.2	40.2	40.2	46	21.1	3	12	270	0.00	30.119 
11:20	40.2	40.2	40.2	47	21.6	3	12	248	0.00	30.118 
11:25	40.1	40.1	40.1	48	22.0	3	10	248	0.00	30.118 
11:30	40.1	40.1	40.1	48	22.0	3	11	248	0.00	30.117 
11:35	40.2	37.5	40.2	48	22.1	4	10	270	0.00	30.117 
11:40	40.2	37.5	40.2	47	21.6	4	12	248	0.00	30.114 
11:45	40.3	37.7	40.3	47	21.7	4	12	248	0.00	30.109 
11:50	40.3	40.3	40.3	48	22.2	2	7	248	0.00	30.107 
11:55	40.2	40.2	40.2	47	21.6	3	10	270	0.00	30.108 
12:00	40.1	40.1	40.1	48	22.0	3	9	270	0.00	30.104 
12:05	40.2	37.5	40.2	48	22.1	4	15	248	0.00	30.104 
12:10	40.6	38.0	40.6	48	22.5	4	11	248	0.00	30.100 
12:15	41.1	41.1	41.1	48	22.9	3	12	292	0.00	30.098 
12:20	41.6	41.6	41.6	48	23.4	3	10	248	0.00	30.093 
12:25	42.1	38.9	42.1	46	22.8	5	11	270	0.00	30.087 
12:30	42.2	39.9	42.2	46	22.9	4	10	248	0.00	30.087 
12:35	42.2	39.9	42.2	46	22.9	4	11	248	0.00	30.087 
12:40	42.2	39.9	42.2	47	23.4	4	12	248	0.00	30.084 
12:45	42.1	42.1	42.1	48	23.8	3	11	248	0.00	30.083 
12:50	42.1	42.1	42.1	47	23.3	3	9	248	0.00	30.077 
12:55	42.1	42.1	42.1	48	23.8	3	10	248	0.00	30.071 
13:00	42.1	42.1	42.1	49	24.3	3	6	248	0.00	30.070 
13:05	42.1	42.1	42.1	49	24.3	2	5	270	0.00	30.066 
13:10	42.2	42.2	42.2	50	24.9	2	7	248	0.00	30.061 
13:15	42.3	42.3	42.3	49	24.5	3	8	248	0.00	30.057 
13:20	42.5	42.5	42.5	50	25.2	3	7	270	0.00	30.057 
13:25	42.5	42.5	42.5	49	24.7	3	10	270	0.00	30.053 
13:30	42.6	42.6	42.6	49	24.8	3	5	270	0.00	30.053 
13:35	42.8	42.8	42.8	50	25.5	2	7	270	0.00	30.052 
13:40	42.9	42.9	42.9	49	25.1	2	7	0	0.00	30.049 
13:45	43.1	43.1	43.1	51	26.2	2	6	248	0.00	30.046 
13:50	43.2	43.2	43.2	51	26.3	2	6	248	0.00	30.044 
13:55	43.3	43.3	43.3	50	25.9	3	10	248	0.00	30.041 
14:00	43.3	43.3	43.3	50	25.9	2	6	248	0.00	30.038 
14:05	43.5	43.5	43.5	50	26.1	3	7	248	0.00	30.035 
14:10	43.5	43.5	43.5	49	25.6	3	11	248	0.00	30.034 
14:15	43.8	43.8	43.8	49	25.9	3	11	248	0.00	30.031 
14:20	43.8	43.8	43.8	49	25.9	3	10	248	0.00	30.027 
14:25	43.8	43.8	43.8	49	25.9	3	9	248	0.00	30.024 
14:30	43.9	41.8	43.9	48	25.5	4	13	270	0.00	30.022 
14:35	44.1	44.1	44.1	48	25.7	3	9	248	0.00	30.022 
14:40	44.1	44.1	44.1	48	25.7	3	11	248	0.00	30.020 
14:45	44.2	44.2	44.2	49	26.3	2	6	248	0.00	30.020 
14:50	44.3	44.3	44.3	49	26.4	3	9	248	0.00	30.020 
14:55	44.3	44.3	44.3	47	25.4	3	10	248	0.00	30.017 
15:00	44.2	42.2	44.2	46	24.7	4	12	248	0.00	30.015 
15:05	44.2	42.2	44.2	47	25.3	4	18	248	0.00	30.013 
15:10	44.2	42.2	44.2	48	25.8	4	15	248	0.00	30.008 
15:15	44.2	44.2	44.2	48	25.8	3	11	248	0.00	30.006 
15:20	44.3	44.3	44.3	48	25.9	3	11	248	0.00	30.008 
15:25	44.5	44.5	44.5	48	26.0	3	10	90	0.00	30.004 
15:30	44.3	44.3	44.3	49	26.4	2	7	248	0.00	30.005 
15:35	44.3	44.3	44.3	49	26.4	2	9	248	0.00	30.006 
15:40	44.3	44.3	44.3	48	25.9	3	10	90	0.00	30.006 
15:45	44.3	44.3	44.3	49	26.4	3	14	270	0.00	30.009 
15:50	44.2	44.2	44.2	48	25.8	3	11	270	0.00	30.010 
15:55	44.2	44.2	44.2	47	25.3	3	11	292	0.00	30.009 
16:00	44.2	44.2	44.2	48	25.8	2	7	248	0.00	30.012 
16:05	44.2	42.2	44.2	46	24.7	4	14	248	0.00	30.015 
16:10	44.2	42.2	44.2	47	25.3	4	7	248	0.00	30.018 
16:15	44.2	42.2	44.2	46	24.7	4	12	270	0.00	30.019 
16:20	44.2	44.2	44.2	47	25.3	2	6	248	0.00	30.020 
16:25	44.2	44.2	44.2	48	25.8	2	5	248	0.00	30.020 
16:30	44.1	44.1	44.1	46	24.7	3	13	225	0.00	30.019 
16:35	44.1	44.1	44.1	47	25.2	2	9	248	0.00	30.020 
16:40	43.9	43.9	43.9	47	25.0	3	10	292	0.00	30.020 
16:45	43.9	43.9	43.9	47	25.0	2	11	45	0.00	30.018 
16:50	43.9	43.9	43.9	46	24.5	3	14	90	0.00	30.019 
16:55	43.8	43.8	43.8	47	24.9	2	5	22	0.00	30.021 
17:00	43.8	41.7	43.8	46	24.4	4	12	90	0.00	30.019 
17:05	43.6	43.6	43.6	47	24.7	3	12	248	0.00	30.020 
17:10	43.3	43.3	43.3	47	24.4	2	6	45	0.00	30.020 
17:15	43.2	43.2	43.2	47	24.3	2	9	68	0.00	30.018 
17:20	43.1	43.1	43.1	48	24.8	3	10	68	0.00	30.016 
17:25	42.9	42.9	42.9	48	24.6	2	5	68	0.00	30.017 
17:30	42.9	42.9	42.9	48	24.6	2	12	90	0.00	30.018 
17:35	42.9	42.9	42.9	48	24.6	3	9	90	0.00	30.020 
17:40	42.9	42.9	42.9	48	24.6	3	9	45	0.00	30.019 
17:45	42.9	42.9	42.9	48	24.6	2	5	270	0.00	30.020 
17:50	42.9	42.9	42.9	49	25.1	2	6	292	0.00	30.022 
17:55	42.8	42.8	42.8	49	25.0	2	8	338	0.00	30.022 
18:00	42.8	42.8	42.8	49	25.0	2	10	270	0.00	30.025 
18:05	42.8	42.8	42.8	49	25.0	2	7	248	0.00	30.026 
18:10	42.8	42.8	42.8	48	24.5	2	12	248	0.00	30.028 
18:15	42.8	42.8	42.8	48	24.5	2	7	270	0.00	30.031 
18:20	42.8	42.8	42.8	49	25.0	2	6	68	0.00	30.033 
18:25	42.9	42.9	42.9	48	24.6	3	7	248	0.00	30.038 
18:30	43.1	43.1	43.1	47	24.3	3	6	248	0.00	30.039 
18:35	43.2	43.2	43.2	46	23.8	3	12	270	0.00	30.035 
18:40	43.2	43.2	43.2	46	23.8	3	9	248	0.00	30.030 
18:45	43.3	41.1	43.3	45	23.4	4	11	270	0.00	30.034 
18:50	43.3	43.3	43.3	46	23.9	2	7	270	0.00	30.036 
18:55	43.5	43.5	43.5	44	23.1	3	11	225	0.00	30.034 
19:00	43.5	43.5	43.5	44	23.1	3	11	248	0.00	30.027 
19:05	43.5	43.5	43.5	45	23.6	2	8	90	0.00	30.031 
19:10	43.6	43.6	43.6	45	23.7	3	10	270	0.00	30.032 
19:15	43.6	43.6	43.6	44	23.1	3	10	270	0.00	30.035 
19:20	43.8	43.8	43.8	45	23.9	3	9	112	0.00	30.034 
19:25	43.8	43.8	43.8	45	23.9	3	11	248	0.00	30.029 
19:30	43.8	43.8	43.8	45	23.9	2	7	68	0.00	30.027 
19:35	43.8	43.8	43.8	45	23.9	2	10	45	0.00	30.022 
19:40	43.8	43.8	43.8	45	23.9	2	11	45	0.00	30.025 
19:45	43.9	43.9	43.9	44	23.4	3	10	270	0.00	30.026 
19:50	44.1	44.1	44.1	45	24.1	3	11	248	0.00	30.029 
19:55	44.1	44.1	44.1	44	23.6	2	7	270	0.00	30.022 
20:00	44.2	44.2	44.2	44	23.7	3	15	248	0.00	30.031 
20:05	44.3	42.3	44.3	43	23.2	4	14	248	0.00	30.030 
20:10	44.3	44.3	44.3	44	23.8	3	7	248	0.00	30.032 
20:15	43.9	43.9	43.9	53	27.9	3	8	248	0.00	30.032 
20:20	43.2	43.2	43.2	55	28.1	3	9	248	0.01	30.033 
20:25	42.8	42.8	42.8	56	28.2	3	10	248	0.00	30.031 
20:30	42.6	42.6	42.6	55	27.6	2	6	248	0.00	30.030 
20:35	42.3	42.3	42.3	59	29.0	2	7	248	0.00	30.029 
20:40	42.1	42.1	42.1	60	29.2	2	5	292	0.00	30.028 
20:45	41.8	41.8	41.8	64	30.5	1	2	0	0.00	30.030 
20:50	41.3	41.3	41.3	64	30.1	1	4	22	0.00	30.021 
20:55	41.3	41.3	41.3	62	29.3	2	9	270	0.01	30.022 
21:00	41.6	41.6	41.6	60	28.8	2	8	248	0.00	30.028 
21:05	41.8	41.8	41.8	62	29.7	2	9	248	0.00	30.029 
21:10	41.6	41.6	41.6	63	30.0	2	7	270	0.00	30.030 
21:15	41.3	41.3	41.3	65	30.4	3	11	248	0.01	30.036 
21:20	41.1	41.1	41.1	68	31.4	2	7	248	0.01	30.044 
21:25	40.8	40.8	40.8	70	31.8	2	9	248	0.01	30.044 
21:30	40.6	40.6	40.6	71	31.9	3	11	248	0.00	30.045 
21:35	40.3	40.3	40.3	72	32.0	2	9	248	0.00	30.037 
21:40	40.3	40.3	40.3	72	32.0	2	7	270	0.00	30.033 
21:45	40.2	40.2	40.2	73	32.2	2	5	270	0.01	30.033 
21:50	40.1	40.1	40.1	74	32.5	2	7	270	0.00	30.034 
21:55	39.9	39.9	39.9	75	32.6	2	9	248	0.00	30.034 
22:00	39.8	39.8	39.8	75	32.5	2	7	248	0.00	30.037 
22:05	39.8	39.8	39.8	74	32.2	2	7	270	0.00	30.031 
22:10	39.9	39.9	39.9	74	32.3	3	7	248	0.00	30.030 
22:15	39.9	39.9	39.9	73	32.0	3	12	270	0.00	30.034 
22:20	40.1	40.1	40.1	73	32.2	2	7	248	0.00	30.033 
22:25	40.2	40.2	40.2	73	32.2	2	6	248	0.00	30.033 
22:30	40.2	40.2	40.2	74	32.6	3	6	248	0.00	30.034 
22:35	40.3	40.3	40.3	73	32.3	3	10	248	0.00	30.031 
22:40	40.5	40.5	40.5	73	32.5	2	6	248	0.00	30.030 
22:45	40.6	40.6	40.6	73	32.6	3	9	248	0.00	30.032 
22:50	40.9	37.5	40.9	73	32.9	5	15	248	0.00	30.038 
22:55	41.2	38.7	41.2	73	33.2	4	12	248	0.00	30.039 
23:00	41.2	37.9	41.2	74	33.6	5	11	270	0.00	30.041 
23:05	41.2	37.9	41.2	75	33.9	5	14	248	0.00	30.037 
23:10	41.2	37.9	41.2	76	34.2	5	13	248	0.00	30.034 
23:15	41.1	41.1	41.1	77	34.4	3	11	248	0.00	30.037 
23:20	41.1	37.8	41.1	77	34.4	5	10	248	0.00	30.042 
23:25	41.1	38.6	41.1	77	34.4	4	11	248	0.00	30.043 
23:30	41.2	37.9	41.2	77	34.5	5	15	270	0.00	30.040 
23:35	41.1	37.8	41.1	78	34.8	5	13	248	0.00	30.040 
23:40	41.1	37.8	41.1	79	35.1	5	15	248	0.00	30.036 
23:45	41.1	38.6	41.1	79	35.1	4	7	248	0.00	30.033 
23:50	41.2	38.7	41.2	78	34.9	4	12	270	0.00	30.030 
23:55	41.3	41.3	41.3	78	35.0	3	9	248	0.00	30.030 

CoCoRaHS
IN-AL-39
A2 Web Hosting
Creative Commons License
GoDaddy
Look for:

loaded 2017-10-16 18:17:39 • last modified 2010-11-18 10:43:29
Privacy PolicyDisclaimer
• wx.awcolley.com is powered by PmWiki v.2002016 •
• all content (unless otherwise noted) © 2017 A W Colley